sensor_id;sensor_type;location;lat;lon;timestamp;P1;durP1;ratioP1;P2;durP2;ratioP2
16189;SDS011;41754;51.498;7.540;2022-10-01T00:01:08;3.10;;;2.70;;
16189;SDS011;41754;51.498;7.540;2022-10-01T00:03:38;3.83;;;2.85;;
16189;SDS011;41754;51.498;7.540;2022-10-01T00:06:06;4.67;;;2.80;;
16189;SDS011;41754;51.498;7.540;2022-10-01T00:08:35;4.63;;;2.92;;
16189;SDS011;41754;51.498;7.540;2022-10-01T00:11:08;3.92;;;2.90;;
16189;SDS011;41754;51.498;7.540;2022-10-01T00:13:40;4.17;;;3.10;;
16189;SDS011;41754;51.498;7.540;2022-10-01T00:16:10;3.20;;;2.90;;
16189;SDS011;41754;51.498;7.540;2022-10-01T00:18:39;3.67;;;3.08;;
16189;SDS011;41754;51.498;7.540;2022-10-01T00:21:10;4.03;;;2.67;;
16189;SDS011;41754;51.498;7.540;2022-10-01T00:23:39;3.50;;;3.20;;
16189;SDS011;41754;51.498;7.540;2022-10-01T00:26:10;4.00;;;2.92;;
16189;SDS011;41754;51.498;7.540;2022-10-01T00:28:39;4.13;;;2.92;;
16189;SDS011;41754;51.498;7.540;2022-10-01T00:31:07;4.72;;;3.00;;
16189;SDS011;41754;51.498;7.540;2022-10-01T00:33:36;5.22;;;3.10;;
16189;SDS011;41754;51.498;7.540;2022-10-01T00:36:05;4.07;;;2.95;;
16189;SDS011;41754;51.498;7.540;2022-10-01T00:38:35;3.67;;;3.10;;
16189;SDS011;41754;51.498;7.540;2022-10-01T00:41:03;4.97;;;3.17;;
16189;SDS011;41754;51.498;7.540;2022-10-01T00:43:33;3.13;;;2.83;;
16189;SDS011;41754;51.498;7.540;2022-10-01T00:46:03;3.10;;;2.80;;
16189;SDS011;41754;51.498;7.540;2022-10-01T00:48:34;3.92;;;2.80;;
16189;SDS011;41754;51.498;7.540;2022-10-01T00:51:04;6.68;;;3.05;;
16189;SDS011;41754;51.498;7.540;2022-10-01T00:53:32;3.60;;;2.67;;
16189;SDS011;41754;51.498;7.540;2022-10-01T00:56:00;4.70;;;2.90;;
16189;SDS011;41754;51.498;7.540;2022-10-01T00:58:28;2.80;;;2.60;;
16189;SDS011;41754;51.498;7.540;2022-10-01T01:00:57;4.75;;;3.03;;
16189;SDS011;41754;51.498;7.540;2022-10-01T01:03:25;2.83;;;2.63;;
16189;SDS011;41754;51.498;7.540;2022-10-01T01:05:53;5.53;;;2.85;;
16189;SDS011;41754;51.498;7.540;2022-10-01T01:08:21;4.47;;;2.78;;
16189;SDS011;41754;51.498;7.540;2022-10-01T01:10:51;4.13;;;2.60;;
16189;SDS011;41754;51.498;7.540;2022-10-01T01:13:26;3.63;;;2.42;;
16189;SDS011;41754;51.498;7.540;2022-10-01T01:16:02;3.00;;;2.33;;
16189;SDS011;41754;51.498;7.540;2022-10-01T01:18:33;2.50;;;2.30;;
16189;SDS011;41754;51.498;7.540;2022-10-01T01:21:13;3.80;;;2.60;;
16189;SDS011;41754;51.498;7.540;2022-10-01T01:23:51;4.18;;;2.70;;
16189;SDS011;41754;51.498;7.540;2022-10-01T01:29:18;2.88;;;2.58;;
16189;SDS011;41754;51.498;7.540;2022-10-01T01:31:48;3.38;;;3.08;;
16189;SDS011;41754;51.498;7.540;2022-10-01T01:34:17;4.35;;;3.28;;
16189;SDS011;41754;51.498;7.540;2022-10-01T01:36:49;4.33;;;3.67;;
16189;SDS011;41754;51.498;7.540;2022-10-01T01:39:19;4.43;;;3.80;;
16189;SDS011;41754;51.498;7.540;2022-10-01T01:41:48;5.50;;;3.80;;
16189;SDS011;41754;51.498;7.540;2022-10-01T01:44:20;4.93;;;4.07;;
16189;SDS011;41754;51.498;7.540;2022-10-01T01:46:50;5.43;;;4.10;;
16189;SDS011;41754;51.498;7.540;2022-10-01T01:49:20;4.70;;;4.20;;
16189;SDS011;41754;51.498;7.540;2022-10-01T01:51:50;4.40;;;3.80;;
16189;SDS011;41754;51.498;7.540;2022-10-01T01:54:20;4.80;;;4.30;;
16189;SDS011;41754;51.498;7.540;2022-10-01T01:56:48;5.10;;;3.90;;
16189;SDS011;41754;51.498;7.540;2022-10-01T01:59:16;4.53;;;4.13;;
16189;SDS011;41754;51.498;7.540;2022-10-01T02:01:46;5.35;;;4.50;;
16189;SDS011;41754;51.498;7.540;2022-10-01T02:04:17;5.47;;;4.40;;
16189;SDS011;41754;51.498;7.540;2022-10-01T02:06:50;4.38;;;3.97;;
16189;SDS011;41754;51.498;7.540;2022-10-01T02:09:27;6.43;;;4.70;;
16189;SDS011;41754;51.498;7.540;2022-10-01T02:12:00;6.77;;;4.80;;
16189;SDS011;41754;51.498;7.540;2022-10-01T02:14:34;4.90;;;4.10;;
16189;SDS011;41754;51.498;7.540;2022-10-01T02:17:12;4.50;;;4.10;;
16189;SDS011;41754;51.498;7.540;2022-10-01T02:19:44;5.37;;;4.30;;
16189;SDS011;41754;51.498;7.540;2022-10-01T02:22:17;5.25;;;4.20;;
16189;SDS011;41754;51.498;7.540;2022-10-01T02:24:47;5.47;;;4.10;;
16189;SDS011;41754;51.498;7.540;2022-10-01T02:27:18;5.20;;;4.70;;
16189;SDS011;41754;51.498;7.540;2022-10-01T02:29:50;5.00;;;4.53;;
16189;SDS011;41754;51.498;7.540;2022-10-01T02:32:21;6.00;;;4.53;;
16189;SDS011;41754;51.498;7.540;2022-10-01T02:34:49;5.43;;;4.65;;
16189;SDS011;41754;51.498;7.540;2022-10-01T02:37:20;4.13;;;3.83;;
16189;SDS011;41754;51.498;7.540;2022-10-01T02:39:50;5.25;;;4.05;;
16189;SDS011;41754;51.498;7.540;2022-10-01T02:42:19;5.97;;;4.53;;
16189;SDS011;41754;51.498;7.540;2022-10-01T02:44:48;5.25;;;4.25;;
16189;SDS011;41754;51.498;7.540;2022-10-01T02:47:18;4.63;;;4.03;;
16189;SDS011;41754;51.498;7.540;2022-10-01T02:49:49;5.28;;;4.20;;
16189;SDS011;41754;51.498;7.540;2022-10-01T02:52:20;4.30;;;3.88;;
16189;SDS011;41754;51.498;7.540;2022-10-01T02:54:53;4.40;;;4.00;;
16189;SDS011;41754;51.498;7.540;2022-10-01T02:57:23;4.57;;;3.90;;
16189;SDS011;41754;51.498;7.540;2022-10-01T02:59:54;4.83;;;4.13;;
16189;SDS011;41754;51.498;7.540;2022-10-01T03:02:26;5.07;;;3.87;;
16189;SDS011;41754;51.498;7.540;2022-10-01T03:04:55;4.75;;;3.80;;
16189;SDS011;41754;51.498;7.540;2022-10-01T03:07:23;4.22;;;3.60;;
16189;SDS011;41754;51.498;7.540;2022-10-01T03:09:51;4.70;;;4.13;;
16189;SDS011;41754;51.498;7.540;2022-10-01T03:12:19;4.30;;;3.50;;
16189;SDS011;41754;51.498;7.540;2022-10-01T03:14:47;5.68;;;3.75;;
16189;SDS011;41754;51.498;7.540;2022-10-01T03:17:15;4.53;;;3.90;;
16189;SDS011;41754;51.498;7.540;2022-10-01T03:19:44;4.55;;;3.88;;
16189;SDS011;41754;51.498;7.540;2022-10-01T03:22:12;4.13;;;3.72;;
16189;SDS011;41754;51.498;7.540;2022-10-01T03:24:43;4.60;;;3.65;;
16189;SDS011;41754;51.498;7.540;2022-10-01T03:27:11;4.78;;;3.70;;
16189;SDS011;41754;51.498;7.540;2022-10-01T03:29:38;3.92;;;3.53;;
16189;SDS011;41754;51.498;7.540;2022-10-01T03:32:06;3.45;;;3.15;;
16189;SDS011;41754;51.498;7.540;2022-10-01T03:34:34;3.55;;;3.22;;
16189;SDS011;41754;51.498;7.540;2022-10-01T03:37:04;4.65;;;3.40;;
16189;SDS011;41754;51.498;7.540;2022-10-01T03:39:31;3.92;;;3.53;;
16189;SDS011;41754;51.498;7.540;2022-10-01T03:42:00;3.72;;;3.10;;
16189;SDS011;41754;51.498;7.540;2022-10-01T03:44:27;3.50;;;3.20;;
16189;SDS011;41754;51.498;7.540;2022-10-01T03:46:55;3.88;;;3.58;;
16189;SDS011;41754;51.498;7.540;2022-10-01T03:49:23;2.85;;;2.65;;
16189;SDS011;41754;51.498;7.540;2022-10-01T03:51:51;3.20;;;2.90;;
16189;SDS011;41754;51.498;7.540;2022-10-01T03:54:20;3.67;;;3.37;;
16189;SDS011;41754;51.498;7.540;2022-10-01T03:56:48;3.67;;;2.90;;
16189;SDS011;41754;51.498;7.540;2022-10-01T03:59:15;3.47;;;3.17;;
16189;SDS011;41754;51.498;7.540;2022-10-01T04:01:44;3.53;;;3.22;;
16189;SDS011;41754;51.498;7.540;2022-10-01T04:04:12;3.45;;;3.15;;
16189;SDS011;41754;51.498;7.540;2022-10-01T04:06:40;3.30;;;3.00;;
16189;SDS011;41754;51.498;7.540;2022-10-01T04:09:07;3.30;;;3.00;;
16189;SDS011;41754;51.498;7.540;2022-10-01T04:11:37;3.65;;;3.22;;
16189;SDS011;41754;51.498;7.540;2022-10-01T04:14:05;5.70;;;3.70;;
16189;SDS011;41754;51.498;7.540;2022-10-01T04:16:33;3.40;;;3.10;;
16189;SDS011;41754;51.498;7.540;2022-10-01T04:19:02;3.00;;;2.70;;
16189;SDS011;41754;51.498;7.540;2022-10-01T04:21:30;2.97;;;2.30;;
16189;SDS011;41754;51.498;7.540;2022-10-01T04:23:59;3.90;;;2.10;;
16189;SDS011;41754;51.498;7.540;2022-10-01T04:26:28;3.30;;;2.30;;
16189;SDS011;41754;51.498;7.540;2022-10-01T04:28:57;2.60;;;2.40;;
16189;SDS011;41754;51.498;7.540;2022-10-01T04:31:25;2.40;;;2.20;;
16189;SDS011;41754;51.498;7.540;2022-10-01T04:33:55;2.33;;;2.13;;
16189;SDS011;41754;51.498;7.540;2022-10-01T04:36:23;2.77;;;2.20;;
16189;SDS011;41754;51.498;7.540;2022-10-01T04:38:52;2.67;;;2.10;;
16189;SDS011;41754;51.498;7.540;2022-10-01T04:41:27;2.23;;;2.03;;
16189;SDS011;41754;51.498;7.540;2022-10-01T04:43:57;2.33;;;2.13;;
16189;SDS011;41754;51.498;7.540;2022-10-01T04:46:26;2.63;;;1.70;;
16189;SDS011;41754;51.498;7.540;2022-10-01T04:48:54;2.33;;;1.70;;
16189;SDS011;41754;51.498;7.540;2022-10-01T04:51:22;2.90;;;1.50;;
16189;SDS011;41754;51.498;7.540;2022-10-01T04:53:50;1.30;;;1.20;;
16189;SDS011;41754;51.498;7.540;2022-10-01T04:56:18;2.03;;;1.43;;
16189;SDS011;41754;51.498;7.540;2022-10-01T04:58:46;2.13;;;1.50;;
16189;SDS011;41754;51.498;7.540;2022-10-01T05:01:15;1.60;;;1.50;;
16189;SDS011;41754;51.498;7.540;2022-10-01T05:03:43;1.80;;;1.70;;
16189;SDS011;41754;51.498;7.540;2022-10-01T05:06:12;1.57;;;1.47;;
16189;SDS011;41754;51.498;7.540;2022-10-01T05:08:40;2.93;;;2.73;;
16189;SDS011;41754;51.498;7.540;2022-10-01T05:11:08;1.52;;;1.42;;
16189;SDS011;41754;51.498;7.540;2022-10-01T05:13:36;1.40;;;1.30;;
16189;SDS011;41754;51.498;7.540;2022-10-01T05:16:04;1.53;;;1.10;;
16189;SDS011;41754;51.498;7.540;2022-10-01T05:18:33;1.40;;;1.30;;
16189;SDS011;41754;51.498;7.540;2022-10-01T05:21:03;1.55;;;1.42;;
16189;SDS011;41754;51.498;7.540;2022-10-01T05:23:31;1.30;;;1.20;;
16189;SDS011;41754;51.498;7.540;2022-10-01T05:25:59;1.30;;;1.20;;
16189;SDS011;41754;51.498;7.540;2022-10-01T05:28:29;1.63;;;1.27;;
16189;SDS011;41754;51.498;7.540;2022-10-01T05:30:57;1.43;;;1.17;;
16189;SDS011;41754;51.498;7.540;2022-10-01T05:33:25;1.55;;;1.38;;
16189;SDS011;41754;51.498;7.540;2022-10-01T05:35:54;1.30;;;1.20;;
16189;SDS011;41754;51.498;7.540;2022-10-01T05:38:22;1.17;;;1.07;;
16189;SDS011;41754;51.498;7.540;2022-10-01T05:40:50;1.25;;;1.00;;
16189;SDS011;41754;51.498;7.540;2022-10-01T05:43:18;1.05;;;1.00;;
16189;SDS011;41754;51.498;7.540;2022-10-01T05:45:46;1.00;;;0.90;;
16189;SDS011;41754;51.498;7.540;2022-10-01T05:48:16;1.30;;;0.90;;
16189;SDS011;41754;51.498;7.540;2022-10-01T05:50:44;0.80;;;0.80;;
16189;SDS011;41754;51.498;7.540;2022-10-01T05:53:13;0.80;;;0.80;;
16189;SDS011;41754;51.498;7.540;2022-10-01T05:55:41;0.70;;;0.70;;
16189;SDS011;41754;51.498;7.540;2022-10-01T05:58:10;0.57;;;0.57;;
16189;SDS011;41754;51.498;7.540;2022-10-01T06:00:39;1.08;;;0.93;;
16189;SDS011;41754;51.498;7.540;2022-10-01T06:03:08;0.75;;;0.60;;
16189;SDS011;41754;51.498;7.540;2022-10-01T06:05:38;0.93;;;0.63;;
16189;SDS011;41754;51.498;7.540;2022-10-01T06:08:06;0.80;;;0.77;;
16189;SDS011;41754;51.498;7.540;2022-10-01T06:10:37;0.80;;;0.63;;
16189;SDS011;41754;51.498;7.540;2022-10-01T06:13:05;0.60;;;0.60;;
16189;SDS011;41754;51.498;7.540;2022-10-01T06:15:34;0.60;;;0.60;;
16189;SDS011;41754;51.498;7.540;2022-10-01T06:18:03;0.80;;;0.50;;
16189;SDS011;41754;51.498;7.540;2022-10-01T06:20:32;1.10;;;0.50;;
16189;SDS011;41754;51.498;7.540;2022-10-01T06:23:00;0.70;;;0.50;;
16189;SDS011;41754;51.498;7.540;2022-10-01T06:25:31;0.60;;;0.60;;
16189;SDS011;41754;51.498;7.540;2022-10-01T06:28:01;0.70;;;0.70;;
16189;SDS011;41754;51.498;7.540;2022-10-01T06:30:32;1.00;;;0.70;;
16189;SDS011;41754;51.498;7.540;2022-10-01T06:33:01;2.50;;;0.70;;
16189;SDS011;41754;51.498;7.540;2022-10-01T06:35:30;0.65;;;0.50;;
16189;SDS011;41754;51.498;7.540;2022-10-01T06:37:58;1.00;;;0.50;;
16189;SDS011;41754;51.498;7.540;2022-10-01T06:40:27;0.40;;;0.40;;
16189;SDS011;41754;51.498;7.540;2022-10-01T06:42:55;0.40;;;0.40;;
16189;SDS011;41754;51.498;7.540;2022-10-01T06:45:25;1.30;;;0.40;;
16189;SDS011;41754;51.498;7.540;2022-10-01T06:47:54;0.60;;;0.40;;
16189;SDS011;41754;51.498;7.540;2022-10-01T06:50:23;0.57;;;0.38;;
16189;SDS011;41754;51.498;7.540;2022-10-01T06:52:51;3.00;;;0.88;;
16189;SDS011;41754;51.498;7.540;2022-10-01T06:55:19;0.40;;;0.40;;
16189;SDS011;41754;51.498;7.540;2022-10-01T06:57:52;0.40;;;0.40;;
16189;SDS011;41754;51.498;7.540;2022-10-01T07:00:20;0.82;;;0.40;;
16189;SDS011;41754;51.498;7.540;2022-10-01T07:02:50;0.30;;;0.30;;
16189;SDS011;41754;51.498;7.540;2022-10-01T07:05:17;0.80;;;0.38;;
16189;SDS011;41754;51.498;7.540;2022-10-01T07:07:45;0.43;;;0.40;;
16189;SDS011;41754;51.498;7.540;2022-10-01T07:10:14;1.00;;;0.40;;
16189;SDS011;41754;51.498;7.540;2022-10-01T07:12:45;0.22;;;0.22;;
16189;SDS011;41754;51.498;7.540;2022-10-01T07:15:14;10.60;;;1.77;;
16189;SDS011;41754;51.498;7.540;2022-10-01T07:17:43;1.05;;;0.50;;
16189;SDS011;41754;51.498;7.540;2022-10-01T07:20:13;0.32;;;0.32;;
16189;SDS011;41754;51.498;7.540;2022-10-01T07:22:43;0.40;;;0.40;;
16189;SDS011;41754;51.498;7.540;2022-10-01T07:25:11;1.20;;;0.50;;
16189;SDS011;41754;51.498;7.540;2022-10-01T07:27:38;0.40;;;0.40;;
16189;SDS011;41754;51.498;7.540;2022-10-01T07:30:07;0.50;;;0.50;;
16189;SDS011;41754;51.498;7.540;2022-10-01T07:32:35;0.90;;;0.70;;
16189;SDS011;41754;51.498;7.540;2022-10-01T07:35:03;1.10;;;0.65;;
16189;SDS011;41754;51.498;7.540;2022-10-01T07:37:33;1.10;;;0.70;;
16189;SDS011;41754;51.498;7.540;2022-10-01T07:40:01;1.13;;;0.80;;
16189;SDS011;41754;51.498;7.540;2022-10-01T07:42:33;1.10;;;0.90;;
16189;SDS011;41754;51.498;7.540;2022-10-01T07:45:00;0.82;;;0.80;;
16189;SDS011;41754;51.498;7.540;2022-10-01T07:47:31;2.10;;;1.00;;
16189;SDS011;41754;51.498;7.540;2022-10-01T07:49:59;1.60;;;0.90;;
16189;SDS011;41754;51.498;7.540;2022-10-01T07:52:27;1.50;;;1.10;;
16189;SDS011;41754;51.498;7.540;2022-10-01T07:54:56;1.50;;;1.20;;
16189;SDS011;41754;51.498;7.540;2022-10-01T07:57:24;1.27;;;1.10;;
16189;SDS011;41754;51.498;7.540;2022-10-01T07:59:52;1.20;;;1.10;;
16189;SDS011;41754;51.498;7.540;2022-10-01T08:02:21;1.40;;;1.30;;
16189;SDS011;41754;51.498;7.540;2022-10-01T08:04:49;1.10;;;1.02;;
16189;SDS011;41754;51.498;7.540;2022-10-01T08:07:35;1.88;;;1.30;;
16189;SDS011;41754;51.498;7.540;2022-10-01T08:10:04;1.20;;;1.20;;
16189;SDS011;41754;51.498;7.540;2022-10-01T08:12:33;2.30;;;1.30;;
16189;SDS011;41754;51.498;7.540;2022-10-01T08:15:00;1.70;;;1.20;;
16189;SDS011;41754;51.498;7.540;2022-10-01T08:17:28;1.42;;;1.33;;
16189;SDS011;41754;51.498;7.540;2022-10-01T08:19:56;3.58;;;3.20;;
16189;SDS011;41754;51.498;7.540;2022-10-01T08:22:24;1.35;;;1.23;;
16189;SDS011;41754;51.498;7.540;2022-10-01T08:24:52;1.33;;;1.20;;
16189;SDS011;41754;51.498;7.540;2022-10-01T08:27:23;1.40;;;1.30;;
16189;SDS011;41754;51.498;7.540;2022-10-01T08:29:51;1.88;;;1.58;;
16189;SDS011;41754;51.498;7.540;2022-10-01T08:32:19;1.40;;;1.20;;
16189;SDS011;41754;51.498;7.540;2022-10-01T08:34:47;1.50;;;1.40;;
16189;SDS011;41754;51.498;7.540;2022-10-01T08:37:24;1.48;;;1.38;;
16189;SDS011;41754;51.498;7.540;2022-10-01T08:39:53;1.52;;;1.35;;
16189;SDS011;41754;51.498;7.540;2022-10-01T08:42:30;1.95;;;1.40;;
16189;SDS011;41754;51.498;7.540;2022-10-01T08:45:10;1.60;;;1.40;;
16189;SDS011;41754;51.498;7.540;2022-10-01T08:47:40;1.77;;;1.42;;
16189;SDS011;41754;51.498;7.540;2022-10-01T08:50:11;2.00;;;1.55;;
16189;SDS011;41754;51.498;7.540;2022-10-01T08:52:45;2.83;;;1.52;;
16189;SDS011;41754;51.498;7.540;2022-10-01T08:55:16;1.58;;;1.40;;
16189;SDS011;41754;51.498;7.540;2022-10-01T08:57:48;3.57;;;1.73;;
16189;SDS011;41754;51.498;7.540;2022-10-01T09:00:20;2.92;;;1.40;;
16189;SDS011;41754;51.498;7.540;2022-10-01T09:02:48;2.30;;;1.50;;
16189;SDS011;41754;51.498;7.540;2022-10-01T09:05:20;2.72;;;1.52;;
16189;SDS011;41754;51.498;7.540;2022-10-01T09:07:59;2.15;;;1.52;;
16189;SDS011;41754;51.498;7.540;2022-10-01T09:10:39;1.92;;;1.50;;
16189;SDS011;41754;51.498;7.540;2022-10-01T09:13:19;1.67;;;1.48;;
16189;SDS011;41754;51.498;7.540;2022-10-01T09:16:08;2.38;;;1.50;;
16189;SDS011;41754;51.498;7.540;2022-10-01T09:18:43;3.08;;;1.90;;
16189;SDS011;41754;51.498;7.540;2022-10-01T09:21:19;1.67;;;1.52;;
16189;SDS011;41754;51.498;7.540;2022-10-01T09:23:54;2.00;;;1.45;;
16189;SDS011;41754;51.498;7.540;2022-10-01T09:26:25;2.10;;;1.70;;
16189;SDS011;41754;51.498;7.540;2022-10-01T09:28:54;2.67;;;1.90;;
16189;SDS011;41754;51.498;7.540;2022-10-01T09:31:25;3.13;;;1.73;;
16189;SDS011;41754;51.498;7.540;2022-10-01T09:33:57;3.17;;;1.77;;
16189;SDS011;41754;51.498;7.540;2022-10-01T09:36:30;3.73;;;1.97;;
16189;SDS011;41754;51.498;7.540;2022-10-01T09:39:03;3.00;;;1.88;;
16189;SDS011;41754;51.498;7.540;2022-10-01T09:41:37;3.83;;;2.05;;
16189;SDS011;41754;51.498;7.540;2022-10-01T09:44:06;2.03;;;1.83;;
16189;SDS011;41754;51.498;7.540;2022-10-01T09:46:44;3.05;;;1.73;;
16189;SDS011;41754;51.498;7.540;2022-10-01T09:49:13;2.15;;;1.70;;
16189;SDS011;41754;51.498;7.540;2022-10-01T09:51:47;3.80;;;1.97;;
16189;SDS011;41754;51.498;7.540;2022-10-01T09:54:17;4.15;;;2.10;;
16189;SDS011;41754;51.498;7.540;2022-10-01T09:56:49;3.13;;;1.98;;
16189;SDS011;41754;51.498;7.540;2022-10-01T09:59:21;2.63;;;1.85;;
16189;SDS011;41754;51.498;7.540;2022-10-01T10:01:53;3.03;;;1.70;;
16189;SDS011;41754;51.498;7.540;2022-10-01T10:04:24;2.57;;;1.80;;
16189;SDS011;41754;51.498;7.540;2022-10-01T10:06:58;5.07;;;2.03;;
16189;SDS011;41754;51.498;7.540;2022-10-01T10:09:27;2.72;;;1.67;;
16189;SDS011;41754;51.498;7.540;2022-10-01T10:11:56;3.17;;;1.90;;
16189;SDS011;41754;51.498;7.540;2022-10-01T10:14:28;2.58;;;1.58;;
16189;SDS011;41754;51.498;7.540;2022-10-01T10:16:57;2.70;;;1.70;;
16189;SDS011;41754;51.498;7.540;2022-10-01T10:19:31;3.10;;;1.70;;
16189;SDS011;41754;51.498;7.540;2022-10-01T10:22:08;3.13;;;1.52;;
16189;SDS011;41754;51.498;7.540;2022-10-01T10:24:36;2.88;;;1.70;;
16189;SDS011;41754;51.498;7.540;2022-10-01T10:27:05;1.98;;;1.60;;
16189;SDS011;41754;51.498;7.540;2022-10-01T10:29:44;4.50;;;2.10;;
16189;SDS011;41754;51.498;7.540;2022-10-01T10:32:13;3.20;;;1.85;;
16189;SDS011;41754;51.498;7.540;2022-10-01T10:34:44;3.07;;;2.00;;
16189;SDS011;41754;51.498;7.540;2022-10-01T10:37:13;3.72;;;2.20;;
16189;SDS011;41754;51.498;7.540;2022-10-01T10:39:44;3.50;;;2.30;;
16189;SDS011;41754;51.498;7.540;2022-10-01T10:42:15;2.63;;;1.75;;
16189;SDS011;41754;51.498;7.540;2022-10-01T10:44:45;2.30;;;1.48;;
16189;SDS011;41754;51.498;7.540;2022-10-01T10:47:16;2.53;;;1.67;;
16189;SDS011;41754;51.498;7.540;2022-10-01T10:49:46;1.90;;;1.38;;
16189;SDS011;41754;51.498;7.540;2022-10-01T10:52:18;1.42;;;1.00;;
16189;SDS011;41754;51.498;7.540;2022-10-01T10:54:49;1.77;;;1.20;;
16189;SDS011;41754;51.498;7.540;2022-10-01T10:57:18;2.35;;;1.25;;
16189;SDS011;41754;51.498;7.540;2022-10-01T10:59:55;2.15;;;1.00;;
16189;SDS011;41754;51.498;7.540;2022-10-01T11:02:25;1.77;;;1.00;;
16189;SDS011;41754;51.498;7.540;2022-10-01T11:04:56;1.70;;;0.93;;
16189;SDS011;41754;51.498;7.540;2022-10-01T11:07:24;1.48;;;0.80;;
16189;SDS011;41754;51.498;7.540;2022-10-01T11:10:04;1.05;;;0.80;;
16189;SDS011;41754;51.498;7.540;2022-10-01T11:12:45;1.45;;;1.00;;
16189;SDS011;41754;51.498;7.540;2022-10-01T11:15:28;1.67;;;1.00;;
16189;SDS011;41754;51.498;7.540;2022-10-01T11:18:06;2.10;;;1.20;;
16189;SDS011;41754;51.498;7.540;2022-10-01T11:20:45;1.90;;;0.90;;
16189;SDS011;41754;51.498;7.540;2022-10-01T11:23:42;1.23;;;0.90;;
16189;SDS011;41754;51.498;7.540;2022-10-01T11:26:20;2.22;;;1.13;;
16189;SDS011;41754;51.498;7.540;2022-10-01T11:28:54;3.10;;;1.20;;
16189;SDS011;41754;51.498;7.540;2022-10-01T11:31:33;2.58;;;1.15;;
16189;SDS011;41754;51.498;7.540;2022-10-01T11:34:13;2.60;;;2.00;;
16189;SDS011;41754;51.498;7.540;2022-10-01T11:36:48;2.78;;;1.95;;
16189;SDS011;41754;51.498;7.540;2022-10-01T11:39:23;2.83;;;1.50;;
16189;SDS011;41754;51.498;7.540;2022-10-01T11:41:54;2.67;;;1.38;;
16189;SDS011;41754;51.498;7.540;2022-10-01T11:44:25;2.70;;;1.60;;
16189;SDS011;41754;51.498;7.540;2022-10-01T11:46:59;3.05;;;1.75;;
16189;SDS011;41754;51.498;7.540;2022-10-01T11:49:36;5.68;;;1.98;;
16189;SDS011;41754;51.498;7.540;2022-10-01T11:52:11;5.53;;;2.42;;
16189;SDS011;41754;51.498;7.540;2022-10-01T11:54:47;6.18;;;2.22;;
16189;SDS011;41754;51.498;7.540;2022-10-01T11:57:21;5.00;;;2.00;;
16189;SDS011;41754;51.498;7.540;2022-10-01T12:00:08;4.10;;;2.35;;
16189;SDS011;41754;51.498;7.540;2022-10-01T12:02:41;5.67;;;2.40;;
16189;SDS011;41754;51.498;7.540;2022-10-01T12:05:14;6.70;;;2.70;;
16189;SDS011;41754;51.498;7.540;2022-10-01T12:07:44;5.50;;;2.30;;
16189;SDS011;41754;51.498;7.540;2022-10-01T12:10:16;7.60;;;2.40;;
16189;SDS011;41754;51.498;7.540;2022-10-01T12:12:53;5.55;;;2.17;;
16189;SDS011;41754;51.498;7.540;2022-10-01T12:15:24;5.13;;;2.20;;
16189;SDS011;41754;51.498;7.540;2022-10-01T12:17:58;5.57;;;2.20;;
16189;SDS011;41754;51.498;7.540;2022-10-01T12:20:30;5.32;;;2.20;;
16189;SDS011;41754;51.498;7.540;2022-10-01T12:23:01;6.38;;;2.45;;
16189;SDS011;41754;51.498;7.540;2022-10-01T12:25:33;5.68;;;2.20;;
16189;SDS011;41754;51.498;7.540;2022-10-01T12:28:07;8.18;;;2.33;;
16189;SDS011;41754;51.498;7.540;2022-10-01T12:30:40;4.95;;;2.83;;
16189;SDS011;41754;51.498;7.540;2022-10-01T12:36:31;6.60;;;3.38;;
16189;SDS011;41754;51.498;7.540;2022-10-01T12:39:07;7.40;;;3.03;;
16189;SDS011;41754;51.498;7.540;2022-10-01T12:41:45;5.57;;;2.50;;
16189;SDS011;41754;51.498;7.540;2022-10-01T12:44:30;4.13;;;2.40;;
16189;SDS011;41754;51.498;7.540;2022-10-01T12:47:12;6.65;;;2.45;;
16189;SDS011;41754;51.498;7.540;2022-10-01T12:49:48;6.13;;;2.55;;
16189;SDS011;41754;51.498;7.540;2022-10-01T12:52:25;4.43;;;1.92;;
16189;SDS011;41754;51.498;7.540;2022-10-01T12:55:08;9.87;;;2.47;;
16189;SDS011;41754;51.498;7.540;2022-10-01T12:57:46;4.93;;;2.13;;
16189;SDS011;41754;51.498;7.540;2022-10-01T13:00:19;4.30;;;2.10;;
16189;SDS011;41754;51.498;7.540;2022-10-01T13:02:56;5.15;;;2.45;;
16189;SDS011;41754;51.498;7.540;2022-10-01T13:05:37;5.90;;;2.33;;
16189;SDS011;41754;51.498;7.540;2022-10-01T13:08:17;5.82;;;2.70;;
16189;SDS011;41754;51.498;7.540;2022-10-01T13:10:55;6.63;;;2.75;;
16189;SDS011;41754;51.498;7.540;2022-10-01T13:13:29;6.07;;;2.80;;
16189;SDS011;41754;51.498;7.540;2022-10-01T13:16:01;6.78;;;3.10;;
16189;SDS011;41754;51.498;7.540;2022-10-01T13:18:35;9.10;;;4.20;;
16189;SDS011;41754;51.498;7.540;2022-10-01T13:21:08;8.13;;;3.13;;
16189;SDS011;41754;51.498;7.540;2022-10-01T13:23:42;10.55;;;4.18;;
16189;SDS011;41754;51.498;7.540;2022-10-01T13:26:13;0.15;;;0.15;;
16189;SDS011;41754;51.498;7.540;2022-10-01T13:28:49;1.00;;;0.80;;
16189;SDS011;41754;51.498;7.540;2022-10-01T13:31:31;0.40;;;0.40;;
16189;SDS011;41754;51.498;7.540;2022-10-01T13:34:01;2.20;;;0.40;;
16189;SDS011;41754;51.498;7.540;2022-10-01T13:36:29;0.00;;;0.00;;
16189;SDS011;41754;51.498;7.540;2022-10-01T13:39:00;0.00;;;0.00;;
16189;SDS011;41754;51.498;7.540;2022-10-01T13:41:28;0.00;;;0.00;;
16189;SDS011;41754;51.498;7.540;2022-10-01T13:44:01;0.00;;;0.00;;
16189;SDS011;41754;51.498;7.540;2022-10-01T13:46:49;0.00;;;0.00;;
16189;SDS011;41754;51.498;7.540;2022-10-01T13:49:20;0.00;;;0.00;;
16189;SDS011;41754;51.498;7.540;2022-10-01T13:51:50;0.00;;;0.00;;
16189;SDS011;41754;51.498;7.540;2022-10-01T13:54:22;2.33;;;0.55;;
16189;SDS011;41754;51.498;7.540;2022-10-01T13:56:53;0.00;;;0.00;;
16189;SDS011;41754;51.498;7.540;2022-10-01T13:59:25;0.00;;;0.00;;
16189;SDS011;41754;51.498;7.540;2022-10-01T14:01:57;0.00;;;0.00;;
16189;SDS011;41754;51.498;7.540;2022-10-01T14:04:28;1.35;;;1.17;;
16189;SDS011;41754;51.498;7.540;2022-10-01T14:07:01;0.00;;;0.00;;
16189;SDS011;41754;51.498;7.540;2022-10-01T14:09:33;0.00;;;0.00;;
16189;SDS011;41754;51.498;7.540;2022-10-01T14:12:02;0.00;;;0.00;;
16189;SDS011;41754;51.498;7.540;2022-10-01T14:14:50;0.00;;;0.00;;
16189;SDS011;41754;51.498;7.540;2022-10-01T14:17:37;0.00;;;0.00;;
16189;SDS011;41754;51.498;7.540;2022-10-01T14:20:05;6.18;;;1.88;;
16189;SDS011;41754;51.498;7.540;2022-10-01T14:22:38;0.52;;;0.52;;
16189;SDS011;41754;51.498;7.540;2022-10-01T14:25:25;0.00;;;0.00;;
16189;SDS011;41754;51.498;7.540;2022-10-01T14:28:04;0.00;;;0.00;;
16189;SDS011;41754;51.498;7.540;2022-10-01T14:30:41;3.40;;;1.20;;
16189;SDS011;41754;51.498;7.540;2022-10-01T14:33:17;0.00;;;0.00;;
16189;SDS011;41754;51.498;7.540;2022-10-01T14:35:58;0.00;;;0.00;;
16189;SDS011;41754;51.498;7.540;2022-10-01T14:38:29;0.00;;;0.00;;
16189;SDS011;41754;51.498;7.540;2022-10-01T14:40:58;0.08;;;0.08;;
16189;SDS011;41754;51.498;7.540;2022-10-01T14:43:27;0.00;;;0.00;;
16189;SDS011;41754;51.498;7.540;2022-10-01T14:45:57;0.85;;;0.85;;
16189;SDS011;41754;51.498;7.540;2022-10-01T14:48:27;0.08;;;0.08;;
16189;SDS011;41754;51.498;7.540;2022-10-01T14:50:56;0.10;;;0.10;;
16189;SDS011;41754;51.498;7.540;2022-10-01T14:53:25;0.00;;;0.00;;
16189;SDS011;41754;51.498;7.540;2022-10-01T14:55:55;0.00;;;0.00;;
16189;SDS011;41754;51.498;7.540;2022-10-01T14:58:28;0.00;;;0.00;;
16189;SDS011;41754;51.498;7.540;2022-10-01T15:00:57;1.25;;;0.85;;
16189;SDS011;41754;51.498;7.540;2022-10-01T15:03:34;0.45;;;0.15;;
16189;SDS011;41754;51.498;7.540;2022-10-01T15:06:03;0.00;;;0.00;;
16189;SDS011;41754;51.498;7.540;2022-10-01T15:08:35;0.00;;;0.00;;
16189;SDS011;41754;51.498;7.540;2022-10-01T15:11:06;0.00;;;0.00;;
16189;SDS011;41754;51.498;7.540;2022-10-01T15:13:38;0.00;;;0.00;;
16189;SDS011;41754;51.498;7.540;2022-10-01T15:16:09;0.00;;;0.00;;
16189;SDS011;41754;51.498;7.540;2022-10-01T15:18:40;0.00;;;0.00;;